Time;durP1;ratioP1;P1;durP2;ratioP2;P2;SDS_P1;SDS_P2;PMS_P1;PMS_P2;Temp;Humidity;BMP_temperature;BMP_pressure;BME280_temperature;BME280_humidity;BME280_pressure;Samples;Min_cycle;Max_cycle;Signal;HPM_P1;HPM_P2
2022/12/31 00:00:38;;;;;;;12.13;10.93;;;10.90;99.90;;;;;;5053134;28;20232;-50
2022/12/31 00:03:07;;;;;;;12.37;11.17;;;11.00;99.90;;;;;;5053788;28;20220;-50
2022/12/31 00:05:36;;;;;;;12.53;11.33;;;11.00;99.90;;;;;;5052793;28;20233;-50
2022/12/31 00:08:05;;;;;;;11.30;10.30;;;11.00;99.90;;;;;;5053664;28;20271;-50
2022/12/31 00:10:38;;;;;;;11.00;10.00;;;11.00;99.90;;;;;;5053799;28;20236;-51
2022/12/31 00:13:07;;;;;;;11.10;10.10;;;11.00;99.90;;;;;;5053883;28;20333;-51
2022/12/31 00:15:36;;;;;;;10.87;9.97;;;11.10;99.90;;;;;;5053655;28;20621;-51
2022/12/31 00:18:06;;;;;;;11.90;10.80;;;11.10;99.90;;;;;;5053436;28;20237;-50
2022/12/31 00:20:34;;;;;;;11.53;10.50;;;11.10;99.90;;;;;;5053318;28;20604;-51
2022/12/31 00:23:02;;;;;;;11.33;10.23;;;11.10;99.90;;;;;;5053367;28;20225;-51
2022/12/31 00:25:30;;;;;;;10.97;9.93;;;11.10;99.90;;;;;;5053312;28;20235;-52
2022/12/31 00:27:58;;;;;;;11.20;10.10;;;11.10;99.90;;;;;;5053321;28;20231;-50
2022/12/31 00:30:26;;;;;;;10.27;9.30;;;11.10;99.90;;;;;;5052519;28;20323;-51
2022/12/31 00:32:55;;;;;;;10.13;9.23;;;11.10;99.90;;;;;;5053289;28;20224;-51
2022/12/31 00:35:23;;;;;;;10.60;9.60;;;11.10;99.90;;;;;;5053229;28;20224;-50
2022/12/31 00:37:52;;;;;;;10.43;9.43;;;11.10;99.90;;;;;;5053309;28;20225;-50
2022/12/31 00:40:20;;;;;;;10.37;9.37;;;11.10;99.90;;;;;;5053348;28;20245;-50
2022/12/31 00:42:48;;;;;;;10.53;9.17;;;11.20;99.90;;;;;;5051704;28;20221;-47
2022/12/31 00:45:17;;;;;;;10.40;9.30;;;11.20;99.90;;;;;;5053319;28;20233;-49
2022/12/31 00:47:45;;;;;;;10.27;9.33;;;11.20;99.90;;;;;;5053052;28;20352;-51
2022/12/31 00:50:14;;;;;;;10.40;9.50;;;11.20;99.90;;;;;;5052977;28;20274;-51
2022/12/31 00:52:42;;;;;;;10.60;9.00;;;11.20;99.90;;;;;;5052925;28;20681;-50
2022/12/31 00:55:10;;;;;;;9.80;8.90;;;11.20;99.90;;;;;;5052878;28;20221;-48
2022/12/31 00:57:38;;;;;;;9.47;8.53;;;11.20;99.90;;;;;;5052839;28;20694;-52
2022/12/31 01:00:08;;;;;;;9.27;8.47;;;11.20;99.90;;;;;;5052687;28;20231;-51
2022/12/31 01:02:36;;;;;;;9.33;8.53;;;11.20;99.90;;;;;;5052340;28;20233;-51
2022/12/31 01:05:05;;;;;;;10.00;9.00;;;11.20;99.90;;;;;;5052594;28;20605;-53
2022/12/31 01:07:36;;;;;;;9.47;8.67;;;11.20;99.90;;;;;;5052752;28;20226;-51
2022/12/31 01:10:05;;;;;;;10.03;9.13;;;11.20;99.90;;;;;;5052892;28;20225;-51
2022/12/31 01:12:33;;;;;;;10.30;9.30;;;11.20;99.90;;;;;;5052658;28;20241;-50
2022/12/31 01:15:01;;;;;;;10.60;9.60;;;11.30;99.90;;;;;;5052152;28;20233;-51
2022/12/31 01:17:30;;;;;;;11.03;9.97;;;11.20;99.90;;;;;;5052196;28;20685;-52
2022/12/31 01:19:58;;;;;;;10.07;9.07;;;11.20;99.90;;;;;;5052570;28;20249;-48
2022/12/31 01:22:26;;;;;;;9.53;8.73;;;11.20;99.90;;;;;;5052589;28;20218;-50
2022/12/31 01:24:55;;;;;;;9.57;8.73;;;11.20;99.90;;;;;;5052620;28;20231;-52
2022/12/31 01:27:24;;;;;;;10.37;9.37;;;11.20;99.90;;;;;;5052296;28;20698;-49
2022/12/31 01:29:52;;;;;;;11.17;9.33;;;11.20;99.90;;;;;;5052111;28;20264;-49
2022/12/31 01:32:20;;;;;;;10.03;9.00;;;11.20;99.90;;;;;;5051788;28;20275;-50
2022/12/31 01:34:48;;;;;;;10.40;9.37;;;11.20;99.90;;;;;;5052279;28;20708;-52
2022/12/31 01:37:16;;;;;;;9.80;8.87;;;11.30;99.90;;;;;;5052409;28;20586;-50
2022/12/31 01:39:44;;;;;;;9.97;8.97;;;11.20;99.90;;;;;;5052486;28;20245;-49
2022/12/31 01:42:14;;;;;;;9.97;8.93;;;11.30;99.90;;;;;;5052206;28;20226;-51
2022/12/31 01:44:52;;;;;;;10.77;9.77;;;11.40;99.90;;;;;;5052423;28;20233;-49
2022/12/31 01:47:28;;;;;;;9.60;8.60;;;11.30;99.90;;;;;;5052642;28;20323;-50
2022/12/31 01:50:00;;;;;;;10.03;9.03;;;11.30;99.90;;;;;;5052343;28;20576;-50
2022/12/31 01:52:32;;;;;;;9.03;8.27;;;11.30;99.90;;;;;;5052270;28;20250;-51
2022/12/31 01:55:04;;;;;;;9.80;8.90;;;11.30;99.90;;;;;;5052317;28;20233;-51
2022/12/31 01:57:35;;;;;;;8.77;7.97;;;11.30;99.90;;;;;;5049789;28;20353;-52
2022/12/31 02:00:05;;;;;;;9.10;8.20;;;11.30;99.90;;;;;;5052057;28;20625;-50
2022/12/31 02:02:33;;;;;;;9.30;8.30;;;11.30;99.90;;;;;;5051299;28;20241;-51
2022/12/31 02:05:04;;;;;;;8.33;7.63;;;11.40;99.90;;;;;;5050991;28;20242;-52
2022/12/31 02:07:32;;;;;;;8.77;7.87;;;11.30;99.90;;;;;;5051972;28;20297;-52
2022/12/31 02:10:00;;;;;;;9.00;8.10;;;11.40;99.90;;;;;;5052227;28;20230;-51
2022/12/31 02:12:28;;;;;;;9.67;8.70;;;11.40;99.90;;;;;;5052090;28;20256;-50
2022/12/31 02:14:58;;;;;;;9.57;8.57;;;11.40;99.90;;;;;;5051983;28;20279;-50
2022/12/31 02:17:32;;;;;;;9.73;8.73;;;11.40;99.90;;;;;;5052073;28;20233;-48
2022/12/31 02:20:26;;;;;;;9.03;8.23;;;11.30;99.90;;;;;;5052076;28;20252;-51
2022/12/31 02:23:23;;;;;;;9.77;8.77;;;11.40;99.90;;;;;;5051941;28;20229;-50
2022/12/31 02:26:28;;;;;;;9.17;7.73;;;11.40;99.90;;;;;;5052140;28;20720;-51
2022/12/31 02:29:41;;;;;;;9.37;8.47;;;11.40;99.90;;;;;;5032569;28;20233;-51
2022/12/31 02:32:15;;;;;;;8.87;8.07;;;11.40;99.90;;;;;;4979406;28;20232;-51
2022/12/31 02:34:48;;;;;;;8.77;7.97;;;11.40;99.90;;;;;;5050319;28;20238;-51
2022/12/31 02:37:19;;;;;;;8.80;7.97;;;11.30;99.90;;;;;;5055373;28;20236;-50
2022/12/31 02:39:48;;;;;;;8.27;7.47;;;11.30;99.90;;;;;;5055465;28;20697;-48
2022/12/31 02:42:16;;;;;;;9.33;7.73;;;11.30;99.90;;;;;;5055615;28;20697;-50
2022/12/31 02:44:44;;;;;;;8.17;7.20;;;11.30;99.90;;;;;;5055274;28;20681;-51
2022/12/31 02:47:26;;;;;;;7.63;6.93;;;11.30;99.90;;;;;;5055245;28;20754;-51
2022/12/31 02:50:08;;;;;;;7.53;6.77;;;11.30;99.90;;;;;;5055414;28;20690;-52
2022/12/31 02:52:48;;;;;;;7.20;6.50;;;11.30;99.90;;;;;;5054925;28;20226;-50
2022/12/31 02:55:21;;;;;;;6.90;5.83;;;11.20;99.90;;;;;;5055400;28;20233;-51
2022/12/31 02:57:55;;;;;;;7.40;5.80;;;11.20;99.90;;;;;;5054683;28;20217;-51
2022/12/31 03:03:11;;;;;;;6.90;5.57;;;11.30;99.90;;;;;;5054698;28;20227;-51
2022/12/31 03:05:42;;;;;;;5.73;5.10;;;11.20;99.90;;;;;;5054694;28;20233;-52
2022/12/31 03:08:10;;;;;;;5.93;5.43;;;11.20;99.90;;;;;;5055033;28;20716;-51
2022/12/31 03:10:38;;;;;;;5.13;4.73;;;11.20;99.90;;;;;;5054611;28;20577;-52
2022/12/31 03:13:05;;;;;;;4.60;4.20;;;11.20;99.90;;;;;;5054618;28;20241;-50
2022/12/31 03:15:34;;;;;;;6.17;5.03;;;11.30;99.90;;;;;;5054537;28;20218;-51
2022/12/31 03:18:05;;;;;;;5.40;4.90;;;11.30;99.90;;;;;;5055160;28;20244;-51
2022/12/31 03:23:25;;;;;;;6.73;4.70;;;11.20;99.90;;;;;;5054878;28;20230;-51
2022/12/31 03:25:53;;;;;;;6.10;5.60;;;11.20;99.90;;;;;;5054384;28;20229;-50
2022/12/31 03:28:24;;;;;;;6.87;5.40;;;11.20;99.90;;;;;;5054476;28;20419;-50
2022/12/31 03:30:54;;;;;;;5.80;5.17;;;11.20;99.90;;;;;;5054010;28;20232;-50
2022/12/31 03:33:23;;;;;;;6.00;5.50;;;11.20;99.90;;;;;;5054115;28;20233;-51
2022/12/31 03:35:54;;;;;;;6.83;5.97;;;11.20;99.90;;;;;;5054290;28;20221;-52
2022/12/31 03:38:22;;;;;;;7.37;6.47;;;11.20;99.90;;;;;;5054304;28;20233;-52
2022/12/31 03:40:52;;;;;;;7.20;6.60;;;11.20;99.90;;;;;;5054130;28;20240;-51
2022/12/31 03:43:20;;;;;;;7.60;6.97;;;11.20;99.90;;;;;;5054478;28;20695;-51
2022/12/31 03:45:50;;;;;;;7.73;7.03;;;11.20;99.90;;;;;;5054335;28;20616;-50
2022/12/31 03:48:19;;;;;;;9.27;8.27;;;11.20;99.90;;;;;;5054039;28;20242;-51
2022/12/31 03:50:47;;;;;;;9.10;8.30;;;11.20;99.90;;;;;;5053529;28;20221;-51
2022/12/31 03:53:17;;;;;;;9.03;8.23;;;11.20;99.90;;;;;;5054230;28;20719;-52
2022/12/31 03:55:45;;;;;;;9.57;8.67;;;11.20;99.90;;;;;;5053833;28;20708;-50
2022/12/31 03:58:13;;;;;;;8.97;8.17;;;11.20;99.90;;;;;;5051449;28;20624;-50
2022/12/31 04:00:42;;;;;;;10.07;9.07;;;11.20;99.90;;;;;;5053082;28;20624;-50
2022/12/31 04:03:10;;;;;;;9.97;9.07;;;11.20;99.90;;;;;;5053754;28;20229;-52
2022/12/31 04:05:39;;;;;;;10.07;9.17;;;11.20;99.90;;;;;;5053860;28;20713;-50
2022/12/31 04:08:07;;;;;;;10.63;9.63;;;11.20;99.90;;;;;;5053683;28;20222;-50
2022/12/31 04:10:36;;;;;;;11.30;10.30;;;11.30;99.90;;;;;;5053561;28;20267;-48
2022/12/31 04:13:04;;;;;;;11.17;10.10;;;11.30;99.90;;;;;;5053732;28;20693;-50
2022/12/31 04:15:32;;;;;;;10.23;9.27;;;11.30;99.90;;;;;;5053606;28;20233;-52
2022/12/31 04:18:00;;;;;;;9.70;8.90;;;11.30;99.90;;;;;;5053697;28;20233;-51
2022/12/31 04:20:28;;;;;;;9.97;9.10;;;11.30;99.90;;;;;;5053351;28;20725;-50
2022/12/31 04:22:56;;;;;;;10.00;9.10;;;11.30;99.90;;;;;;5053472;28;20220;-50
2022/12/31 04:25:24;;;;;;;9.00;8.20;;;11.30;99.90;;;;;;5053919;28;20243;-50
2022/12/31 04:27:54;;;;;;;9.87;8.93;;;11.30;99.90;;;;;;5052945;28;20230;-51
2022/12/31 04:30:22;;;;;;;9.40;8.50;;;11.30;99.90;;;;;;5052551;28;20638;-49
2022/12/31 04:32:50;;;;;;;9.23;8.33;;;11.30;99.90;;;;;;5052705;28;20237;-49
2022/12/31 04:35:18;;;;;;;8.30;7.50;;;11.30;99.90;;;;;;5053034;28;20232;-50
2022/12/31 04:37:46;;;;;;;8.10;7.30;;;11.30;99.90;;;;;;5053217;28;20233;-51
2022/12/31 04:40:14;;;;;;;9.30;7.40;;;11.30;99.90;;;;;;5053194;28;20243;-49
2022/12/31 04:42:42;;;;;;;7.30;6.60;;;11.20;99.90;;;;;;5053272;28;20230;-47
2022/12/31 04:45:12;;;;;;;7.83;6.10;;;11.30;99.90;;;;;;5053308;28;20240;-52
2022/12/31 04:47:40;;;;;;;5.97;5.47;;;11.30;99.90;;;;;;5053149;28;20234;-50
2022/12/31 04:50:08;;;;;;;6.10;5.60;;;11.20;99.90;;;;;;5053250;28;20232;-50
2022/12/31 04:52:36;;;;;;;6.30;5.70;;;11.30;99.90;;;;;;5052602;28;20237;-51
2022/12/31 04:55:11;;;;;;;6.30;5.70;;;11.20;99.90;;;;;;5052860;28;20269;-51
2022/12/31 04:57:39;;;;;;;6.00;5.50;;;11.20;99.90;;;;;;5052569;28;20264;-51
2022/12/31 05:00:08;;;;;;;6.27;5.77;;;11.20;99.90;;;;;;5052764;28;20703;-50
2022/12/31 05:02:37;;;;;;;6.63;6.07;;;11.20;99.90;;;;;;5052384;28;20244;-51
2022/12/31 05:05:07;;;;;;;6.30;5.67;;;11.20;99.90;;;;;;5052522;28;20317;-51
2022/12/31 05:07:35;;;;;;;5.97;5.37;;;11.20;99.90;;;;;;5052434;28;20221;-49
2022/12/31 05:10:03;;;;;;;8.00;5.40;;;11.20;99.90;;;;;;5052728;28;20230;-50
2022/12/31 05:12:31;;;;;;;6.20;5.60;;;11.20;99.90;;;;;;5052503;28;20239;-51
2022/12/31 05:14:59;;;;;;;6.27;5.77;;;11.20;99.90;;;;;;5052631;28;20701;-52
2022/12/31 05:17:27;;;;;;;7.13;6.43;;;11.20;99.90;;;;;;5052463;28;20261;-52
2022/12/31 05:19:57;;;;;;;8.73;7.83;;;11.20;99.90;;;;;;5052581;28;20248;-52
2022/12/31 05:22:31;;;;;;;5.50;5.00;;;11.20;99.90;;;;;;5052696;28;20223;-52
2022/12/31 05:25:00;;;;;;;5.73;5.23;;;11.20;99.90;;;;;;5052576;28;20221;-52
2022/12/31 05:27:30;;;;;;;5.80;5.00;;;11.20;99.90;;;;;;5052440;28;20576;-50
2022/12/31 05:29:59;;;;;;;6.17;5.57;;;11.20;99.90;;;;;;5052144;28;20228;-50
2022/12/31 05:32:27;;;;;;;6.43;5.83;;;11.20;99.90;;;;;;5051801;28;20708;-50
2022/12/31 05:34:56;;;;;;;8.13;5.90;;;11.20;99.90;;;;;;5052364;28;20243;-51
2022/12/31 05:37:24;;;;;;;5.37;4.87;;;11.10;99.90;;;;;;5052394;28;20229;-51
2022/12/31 05:39:52;;;;;;;5.40;4.90;;;11.10;99.90;;;;;;5052660;28;20288;-48
2022/12/31 05:42:20;;;;;;;5.10;4.63;;;11.10;99.90;;;;;;5052588;28;20234;-51
2022/12/31 05:44:49;;;;;;;5.17;4.67;;;11.10;99.90;;;;;;5052651;28;20311;-52
2022/12/31 05:47:17;;;;;;;4.77;4.30;;;11.20;99.90;;;;;;5052344;28;20236;-50
2022/12/31 05:49:45;;;;;;;4.83;4.37;;;11.10;99.90;;;;;;5052110;28;20687;-51
2022/12/31 05:52:15;;;;;;;4.30;3.90;;;11.10;99.90;;;;;;5052593;28;20700;-51
2022/12/31 05:54:44;;;;;;;3.90;3.50;;;11.10;99.90;;;;;;5051640;28;20248;-51
2022/12/31 05:57:12;;;;;;;5.60;3.57;;;11.10;99.90;;;;;;5049629;28;20229;-47
2022/12/31 05:59:40;;;;;;;4.63;4.00;;;11.10;99.90;;;;;;5051609;28;20237;-51
2022/12/31 06:02:08;;;;;;;3.90;3.40;;;11.10;99.90;;;;;;5051624;28;20224;-51
2022/12/31 06:04:36;;;;;;;3.67;2.97;;;11.00;99.90;;;;;;5053367;28;20573;-51
2022/12/31 06:07:04;;;;;;;3.40;3.10;;;11.00;99.90;;;;;;5055960;28;20228;-52
2022/12/31 06:09:33;;;;;;;2.80;2.50;;;11.00;99.90;;;;;;5056025;28;20233;-49
2022/12/31 06:12:01;;;;;;;2.70;2.33;;;11.00;99.90;;;;;;5056216;28;20581;-49
2022/12/31 06:14:29;;;;;;;3.07;2.30;;;11.00;99.90;;;;;;5055996;28;20233;-50
2022/12/31 06:16:58;;;;;;;2.60;2.40;;;11.00;99.90;;;;;;5055763;28;20308;-52
2022/12/31 06:19:26;;;;;;;2.20;2.10;;;11.00;99.90;;;;;;5055389;28;20245;-52
2022/12/31 06:21:54;;;;;;;2.60;2.40;;;10.90;99.90;;;;;;5056020;28;20239;-52
2022/12/31 06:24:22;;;;;;;2.77;2.20;;;10.90;99.90;;;;;;5054792;28;20240;-51
2022/12/31 06:26:51;;;;;;;2.50;2.30;;;10.90;99.90;;;;;;5055658;28;20229;-52
2022/12/31 06:29:19;;;;;;;2.27;1.80;;;10.90;99.90;;;;;;5055610;28;20225;-51
2022/12/31 06:31:47;;;;;;;2.30;1.83;;;10.90;99.90;;;;;;5054581;28;20582;-51
2022/12/31 06:34:16;;;;;;;2.87;1.67;;;10.90;99.90;;;;;;5054996;28;20224;-50
2022/12/31 06:36:44;;;;;;;2.17;1.60;;;10.90;99.90;;;;;;5055135;28;20229;-52
2022/12/31 06:39:12;;;;;;;2.53;1.57;;;10.80;99.90;;;;;;5055124;28;20229;-51
2022/12/31 06:41:40;;;;;;;2.53;1.77;;;10.80;99.90;;;;;;5055385;28;20630;-50
2022/12/31 06:44:09;;;;;;;1.70;1.60;;;10.80;99.90;;;;;;5055002;28;20222;-51
2022/12/31 06:46:37;;;;;;;2.00;1.23;;;10.80;99.90;;;;;;5054970;28;20612;-51
2022/12/31 06:49:05;;;;;;;1.50;1.40;;;10.80;99.90;;;;;;5055146;28;20233;-49
2022/12/31 06:51:33;;;;;;;1.80;1.70;;;10.80;99.90;;;;;;5054593;28;20226;-50
2022/12/31 06:54:01;;;;;;;2.63;1.87;;;10.80;99.90;;;;;;5054374;28;20711;-51
2022/12/31 06:56:30;;;;;;;2.07;1.87;;;10.80;99.90;;;;;;5054660;28;20296;-52
2022/12/31 06:59:02;;;;;;;1.63;1.50;;;10.80;99.90;;;;;;5054252;28;20324;-51
2022/12/31 07:01:42;;;;;;;2.27;1.70;;;10.80;99.90;;;;;;5054076;28;20704;-51
2022/12/31 07:04:38;;;;;;;1.67;1.57;;;10.80;99.90;;;;;;5052697;28;20278;-51
2022/12/31 07:07:12;;;;;;;2.80;1.60;;;10.70;99.90;;;;;;5053294;28;20221;-52
2022/12/31 07:09:52;;;;;;;2.47;1.53;;;10.70;99.90;;;;;;5054554;28;20576;-47
2022/12/31 07:12:31;;;;;;;2.37;1.63;;;10.70;99.90;;;;;;5054369;28;20322;-50
2022/12/31 07:15:04;;;;;;;1.50;1.40;;;10.70;99.90;;;;;;5053559;28;20245;-51
2022/12/31 07:17:41;;;;;;;1.80;1.30;;;10.70;99.90;;;;;;5053870;28;20274;-50
2022/12/31 07:20:11;;;;;;;2.27;1.57;;;10.70;99.90;;;;;;5053700;28;20256;-50
2022/12/31 07:22:41;;;;;;;1.77;1.40;;;10.70;99.90;;;;;;5054042;28;20226;-50
2022/12/31 07:25:14;;;;;;;1.43;1.30;;;10.70;99.90;;;;;;5052380;28;20274;-50
2022/12/31 07:28:00;;;;;;;1.70;1.30;;;10.70;99.90;;;;;;5050768;28;20231;-51
2022/12/31 07:30:37;;;;;;;1.33;1.00;;;10.70;99.90;;;;;;5050535;28;20247;-52
2022/12/31 07:33:21;;;;;;;1.60;1.00;;;10.70;99.90;;;;;;5053425;28;20275;-52
2022/12/31 07:36:00;;;;;;;3.20;1.20;;;10.70;99.90;;;;;;5054361;28;20239;-49
2022/12/31 07:38:36;;;;;;;2.17;1.27;;;10.70;99.90;;;;;;5054224;28;20681;-50
2022/12/31 07:41:12;;;;;;;1.60;1.37;;;10.70;99.90;;;;;;5054289;28;20577;-52
2022/12/31 07:43:51;;;;;;;3.20;1.60;;;10.70;99.90;;;;;;5054030;28;20274;-47
2022/12/31 07:46:28;;;;;;;4.67;2.10;;;10.70;99.90;;;;;;5054144;28;20224;-50
2022/12/31 07:48:58;;;;;;;2.30;1.80;;;10.70;99.90;;;;;;5053741;28;20222;-50
2022/12/31 07:51:29;;;;;;;2.13;1.63;;;10.70;99.90;;;;;;5051400;28;20225;-51
2022/12/31 07:53:58;;;;;;;2.20;1.80;;;10.70;99.90;;;;;;5054072;28;20688;-51
2022/12/31 07:56:26;;;;;;;2.17;1.90;;;10.70;99.90;;;;;;5053324;28;20236;-51
2022/12/31 07:59:05;;;;;;;2.30;2.10;;;10.70;99.90;;;;;;5052033;28;20677;-52
2022/12/31 08:01:40;;;;;;;2.30;2.10;;;10.70;99.90;;;;;;5051882;28;20239;-50
2022/12/31 08:04:20;;;;;;;3.50;2.20;;;10.70;99.90;;;;;;5052713;28;20222;-50
2022/12/31 08:06:58;;;;;;;3.70;2.43;;;10.70;99.90;;;;;;5053419;28;20233;-48
2022/12/31 08:09:39;;;;;;;2.33;2.10;;;10.70;99.90;;;;;;5053568;28;20242;-51
2022/12/31 08:12:08;;;;;;;2.60;2.30;;;10.70;99.90;;;;;;5052982;28;20225;-52
2022/12/31 08:14:43;;;;;;;2.30;1.90;;;10.70;99.90;;;;;;5053182;28;20612;-50
2022/12/31 08:17:13;;;;;;;2.87;2.10;;;10.70;99.90;;;;;;5050598;28;20236;-48
2022/12/31 08:19:44;;;;;;;1.90;1.80;;;10.70;99.90;;;;;;5052998;28;20243;-48
2022/12/31 08:22:30;;;;;;;2.50;1.90;;;10.70;99.90;;;;;;5050685;28;20234;-52
2022/12/31 08:25:12;;;;;;;2.07;1.87;;;10.70;99.90;;;;;;5051454;28;20684;-51
2022/12/31 08:27:47;;;;;;;1.90;1.67;;;10.70;99.90;;;;;;5050869;28;20229;-51
2022/12/31 08:30:18;;;;;;;1.40;1.30;;;10.70;99.90;;;;;;5050383;28;20226;-51
2022/12/31 08:32:50;;;;;;;2.40;1.87;;;10.80;99.90;;;;;;5052829;28;20228;-51
2022/12/31 08:35:30;;;;;;;2.63;1.67;;;10.80;99.90;;;;;;5052912;28;20688;-52
2022/12/31 08:38:08;;;;;;;2.53;1.80;;;10.80;99.90;;;;;;5047619;28;20224;-49
2022/12/31 08:40:47;;;;;;;1.67;1.50;;;10.80;99.90;;;;;;5061705;28;20247;-50
2022/12/31 08:43:37;;;;;;;2.50;1.90;;;10.80;99.90;;;;;;5063231;28;20243;-51
2022/12/31 08:46:10;;;;;;;2.10;1.60;;;10.80;99.90;;;;;;5064656;28;20231;-51
2022/12/31 08:48:40;;;;;;;1.90;1.70;;;10.80;99.90;;;;;;5063199;28;20228;-51
2022/12/31 08:51:15;;;;;;;1.80;1.70;;;10.90;99.90;;;;;;5063359;28;20224;-48
2022/12/31 08:53:44;;;;;;;2.83;1.60;;;10.80;99.90;;;;;;5063963;28;20234;-49
2022/12/31 08:56:23;;;;;;;2.33;1.73;;;10.80;99.90;;;;;;5065075;28;20235;-49
2022/12/31 08:59:03;;;;;;;1.87;1.77;;;10.90;99.90;;;;;;5062409;28;20227;-51
2022/12/31 09:01:40;;;;;;;3.30;1.63;;;10.90;99.90;;;;;;5063240;28;20227;-52
2022/12/31 09:04:20;;;;;;;1.80;1.70;;;10.90;99.90;;;;;;5066050;28;20306;-50
2022/12/31 09:06:57;;;;;;;1.90;1.70;;;11.00;99.90;;;;;;5065895;28;20235;-49
2022/12/31 09:09:37;;;;;;;1.80;1.70;;;11.10;99.90;;;;;;5065867;28;20227;-50
2022/12/31 09:12:14;;;;;;;2.30;2.10;;;11.10;99.90;;;;;;5062233;28;20224;-50
2022/12/31 09:14:46;;;;;;;2.70;2.17;;;11.00;99.90;;;;;;5063188;28;20224;-51
2022/12/31 09:17:33;;;;;;;2.50;2.30;;;11.00;99.90;;;;;;5065475;28;20236;-51
2022/12/31 09:20:03;;;;;;;2.40;2.20;;;11.00;99.90;;;;;;5066041;28;20259;-52
2022/12/31 09:22:33;;;;;;;2.90;2.70;;;10.90;99.90;;;;;;5066602;28;20315;-51
2022/12/31 09:25:01;;;;;;;2.70;2.50;;;11.00;99.90;;;;;;5067158;28;20244;-49
2022/12/31 09:27:37;;;;;;;3.50;2.80;;;11.00;99.90;;;;;;5065099;28;20236;-52
2022/12/31 09:30:10;;;;;;;3.30;3.10;;;11.00;99.90;;;;;;5057975;28;20227;-51
2022/12/31 09:32:47;;;;;;;3.50;3.20;;;11.00;99.90;;;;;;5061714;28;20269;-50
2022/12/31 09:35:24;;;;;;;4.13;3.73;;;11.00;99.90;;;;;;5064610;28;20223;-50
2022/12/31 09:37:58;;;;;;;4.07;3.63;;;11.00;99.90;;;;;;5062970;28;20577;-49
2022/12/31 09:40:58;;;;;;;4.10;3.70;;;11.00;99.90;;;;;;5068696;28;20717;-51
2022/12/31 09:44:05;;;;;;;5.10;4.30;;;11.00;99.90;;;;;;5070161;28;20227;-51
2022/12/31 09:47:11;;;;;;;4.90;4.50;;;11.00;99.90;;;;;;5070625;28;20271;-51
2022/12/31 09:50:14;;;;;;;6.73;5.37;;;11.00;99.90;;;;;;5069030;28;20235;-51
2022/12/31 09:53:03;;;;;;;6.07;5.30;;;11.00;99.90;;;;;;5067533;28;20571;-53
2022/12/31 09:55:37;;;;;;;5.27;4.77;;;11.00;99.90;;;;;;5068857;28;20722;-53
2022/12/31 09:58:19;;;;;;;6.60;6.00;;;11.00;99.90;;;;;;5068645;28;20236;-51
2022/12/31 10:00:52;;;;;;;6.70;6.10;;;11.10;99.90;;;;;;5054845;28;20226;-51
2022/12/31 10:03:40;;;;;;;6.30;5.50;;;11.10;99.90;;;;;;5055930;28;20698;-51
2022/12/31 10:06:24;;;;;;;5.47;4.97;;;11.10;99.90;;;;;;5056042;28;20229;-50
2022/12/31 10:09:13;;;;;;;5.33;4.93;;;11.10;99.90;;;;;;5056242;28;20565;-51
2022/12/31 10:11:57;;;;;;;5.00;4.60;;;11.10;99.90;;;;;;5055684;28;20218;-52
2022/12/31 10:14:41;;;;;;;4.60;4.20;;;11.10;99.90;;;;;;5041793;28;20221;-51
2022/12/31 10:17:27;;;;;;;4.10;3.80;;;11.10;99.90;;;;;;5055779;28;20242;-51
2022/12/31 10:20:25;;;;;;;4.40;4.10;;;11.20;99.90;;;;;;5055544;28;20247;-50
2022/12/31 10:23:24;;;;;;;4.70;4.30;;;11.20;99.90;;;;;;5053120;28;20559;-51
2022/12/31 10:26:18;;;;;;;4.83;4.43;;;11.30;99.90;;;;;;5053061;28;20240;-51
2022/12/31 10:28:54;;;;;;;4.87;4.47;;;11.30;99.90;;;;;;5052745;28;20222;-50
2022/12/31 10:31:50;;;;;;;4.90;4.50;;;11.40;99.90;;;;;;5054986;28;20314;-50
2022/12/31 10:34:25;;;;;;;4.33;4.03;;;11.40;99.90;;;;;;5045603;28;20740;-51
2022/12/31 10:36:56;;;;;;;4.27;3.87;;;11.40;99.90;;;;;;5054506;28;20268;-50
2022/12/31 10:39:38;;;;;;;4.67;4.27;;;11.40;99.90;;;;;;5055270;28;20225;-50
2022/12/31 10:42:49;;;;;;;4.63;4.33;;;11.40;99.90;;;;;;5055837;28;20588;-50
2022/12/31 10:45:43;;;;;;;5.00;4.37;;;11.40;99.90;;;;;;5055676;28;20718;-51
2022/12/31 10:48:43;;;;;;;4.70;4.30;;;11.40;99.90;;;;;;5054135;28;20737;-50
2022/12/31 10:51:45;;;;;;;5.23;4.80;;;11.50;99.90;;;;;;5052958;28;20589;-51
2022/12/31 10:54:37;;;;;;;5.60;5.10;;;11.50;99.90;;;;;;5054090;28;20236;-51
2022/12/31 10:57:32;;;;;;;4.90;4.50;;;11.50;99.90;;;;;;5052690;28;20228;-50
2022/12/31 11:00:13;;;;;;;5.27;4.77;;;11.60;99.90;;;;;;5053680;28;20237;-50
2022/12/31 11:03:24;;;;;;;5.20;4.80;;;11.60;99.90;;;;;;5050763;28;20224;-51
2022/12/31 11:06:40;;;;;;;7.17;5.40;;;11.60;99.90;;;;;;5054310;28;20580;-52
2022/12/31 11:09:44;;;;;;;5.10;4.70;;;11.60;99.90;;;;;;4992009;28;20703;-51
2022/12/31 11:12:31;;;;;;;5.53;5.13;;;11.70;99.90;;;;;;5055092;28;20692;-50
2022/12/31 11:15:35;;;;;;;5.10;4.70;;;11.70;99.90;;;;;;5054803;28;20233;-51
2022/12/31 11:18:14;;;;;;;5.37;4.97;;;11.80;99.90;;;;;;5034699;28;20308;-52
2022/12/31 11:21:03;;;;;;;5.40;4.90;;;11.80;99.90;;;;;;5034696;28;20364;-51
2022/12/31 11:23:41;;;;;;;5.10;4.70;;;11.80;99.90;;;;;;5034956;28;20621;-51
2022/12/31 11:26:19;;;;;;;5.40;5.00;;;12.00;99.90;;;;;;5034636;28;20231;-51
2022/12/31 11:29:13;;;;;;;4.90;4.50;;;12.00;99.90;;;;;;5053734;28;20246;-50
2022/12/31 11:32:06;;;;;;;4.90;4.50;;;12.00;99.90;;;;;;5054212;28;20591;-49
2022/12/31 11:35:11;;;;;;;4.57;4.17;;;12.10;99.90;;;;;;5049666;28;20571;-53
2022/12/31 11:37:45;;;;;;;4.13;3.83;;;12.10;99.90;;;;;;5034408;28;20257;-51
2022/12/31 11:40:40;;;;;;;4.10;3.70;;;12.20;99.90;;;;;;5034703;28;20234;-51
2022/12/31 11:43:21;;;;;;;2.80;2.60;;;12.20;99.90;;;;;;5033573;28;20727;-50
2022/12/31 11:46:28;;;;;;;2.83;2.50;;;12.30;99.90;;;;;;5034185;28;20226;-51
2022/12/31 11:49:10;;;;;;;2.30;2.10;;;12.30;99.90;;;;;;5034449;28;20693;-51
2022/12/31 11:52:11;;;;;;;2.37;2.17;;;12.30;99.90;;;;;;5034242;28;20243;-52
2022/12/31 11:55:15;;;;;;;1.90;1.80;;;12.40;99.90;;;;;;5051524;28;20594;-51
2022/12/31 11:57:48;;;;;;;2.40;1.90;;;12.50;99.90;;;;;;5032920;28;20245;-52
2022/12/31 12:00:19;;;;;;;2.33;1.60;;;12.50;99.90;;;;;;5046617;28;20567;-51
2022/12/31 12:02:49;;;;;;;1.90;1.60;;;12.60;99.90;;;;;;5052662;28;20245;-49
2022/12/31 12:05:21;;;;;;;1.73;1.40;;;12.60;99.90;;;;;;5053580;28;20234;-50
2022/12/31 12:07:50;;;;;;;3.50;1.40;;;12.60;99.90;;;;;;5053281;28;20218;-48
2022/12/31 12:10:24;;;;;;;1.50;1.37;;;12.70;99.90;;;;;;5053950;28;20234;-52
2022/12/31 12:13:12;;;;;;;1.77;1.30;;;12.80;99.90;;;;;;5053569;28;20237;-49
2022/12/31 12:15:44;;;;;;;1.23;1.00;;;12.80;99.90;;;;;;5053476;28;20223;-52
2022/12/31 12:18:24;;;;;;;1.57;1.07;;;12.80;99.90;;;;;;5053784;28;20252;-51
2022/12/31 12:21:02;;;;;;;1.90;1.00;;;12.80;99.90;;;;;;5053499;28;20245;-50
2022/12/31 12:23:31;;;;;;;2.83;1.00;;;12.80;99.90;;;;;;5045532;28;20702;-51
2022/12/31 12:26:00;;;;;;;1.50;1.30;;;12.80;99.90;;;;;;5033881;28;20330;-49
2022/12/31 12:28:30;;;;;;;1.73;1.00;;;12.90;99.90;;;;;;5049869;28;20230;-51
2022/12/31 12:31:01;;;;;;;2.10;1.20;;;12.90;99.90;;;;;;5053076;28;20241;-52
2022/12/31 12:33:40;;;;;;;1.63;1.50;;;12.90;99.90;;;;;;5053280;28;20697;-51
2022/12/31 12:36:12;;;;;;;4.47;2.60;;;13.00;99.90;;;;;;5052348;28;20226;-50
2022/12/31 12:38:41;;;;;;;4.67;2.90;;;13.00;99.90;;;;;;5053123;28;20687;-52
2022/12/31 12:41:12;;;;;;;8.60;6.07;;;13.00;99.90;;;;;;5053100;28;20227;-53
2022/12/31 12:43:40;;;;;;;3.40;2.37;;;13.00;99.90;;;;;;5053052;28;20226;-49
2022/12/31 12:46:20;;;;;;;3.20;1.63;;;13.10;99.90;;;;;;5053370;28;20242;-50
2022/12/31 12:48:53;;;;;;;2.70;1.40;;;13.10;99.90;;;;;;5053115;28;20701;-52
2022/12/31 12:51:37;;;;;;;1.27;1.10;;;13.10;99.90;;;;;;5049133;28;20233;-51
2022/12/31 12:54:18;;;;;;;3.50;1.47;;;13.10;99.90;;;;;;5061618;28;20594;-51
2022/12/31 12:56:51;;;;;;;3.77;1.63;;;13.10;99.90;;;;;;5065038;28;20661;-52
2022/12/31 12:59:48;;;;;;;1.30;1.20;;;13.10;99.90;;;;;;5065742;28;20241;-51
2022/12/31 13:02:47;;;;;;;1.40;1.30;;;13.10;99.90;;;;;;5060674;28;20590;-49
2022/12/31 13:05:26;;;;;;;1.77;1.60;;;13.00;99.90;;;;;;5066342;28;20253;-50
2022/12/31 13:08:13;;;;;;;1.50;1.13;;;13.00;99.90;;;;;;5067054;28;20225;-50
2022/12/31 13:11:00;;;;;;;1.90;1.60;;;13.00;99.90;;;;;;5065749;28;20226;-52
2022/12/31 13:13:36;;;;;;;1.60;1.40;;;13.10;99.90;;;;;;5066963;28;20464;-52
2022/12/31 13:16:11;;;;;;;2.27;1.10;;;13.10;99.90;;;;;;5066206;28;20636;-50
2022/12/31 13:18:51;;;;;;;1.57;1.10;;;13.10;99.90;;;;;;5064294;28;20228;-50
2022/12/31 13:21:28;;;;;;;2.33;1.07;;;13.10;99.90;;;;;;5066283;28;20225;-52
2022/12/31 13:24:06;;;;;;;1.20;1.10;;;13.10;99.90;;;;;;5064765;28;20244;-51
2022/12/31 13:26:39;;;;;;;1.27;1.13;;;13.10;99.90;;;;;;5065271;28;20775;-52
2022/12/31 13:29:17;;;;;;;1.40;1.10;;;13.10;99.90;;;;;;5066538;28;20218;-51
2022/12/31 13:31:47;;;;;;;1.57;1.43;;;13.10;99.90;;;;;;5064408;28;20742;-52